createdAt,value
2019-03-06T00:00:46.803Z,47.83
2019-03-06T00:03:17.187Z,44.50
2019-03-06T00:05:46.260Z,40.20
2019-03-06T00:08:15.184Z,42.53
2019-03-06T00:10:44.207Z,43.17
2019-03-06T00:13:13.291Z,50.83
2019-03-06T00:15:42.414Z,45.73
2019-03-06T00:18:11.421Z,44.00
2019-03-06T00:20:40.328Z,39.43
2019-03-06T00:23:09.263Z,43.23
2019-03-06T00:25:38.244Z,43.30
2019-03-06T00:28:07.296Z,41.10
2019-03-06T00:30:36.343Z,37.20
2019-03-06T00:33:05.293Z,35.97
2019-03-06T00:35:37.127Z,48.00
2019-03-06T00:38:06.134Z,39.50
2019-03-06T00:40:40.686Z,36.27
2019-03-06T00:43:09.675Z,35.57
2019-03-06T00:45:38.752Z,41.30
2019-03-06T00:48:07.725Z,29.87
2019-03-06T00:50:36.705Z,36.93
2019-03-06T00:53:05.592Z,33.43
2019-03-06T00:55:34.544Z,34.03
2019-03-06T00:58:03.464Z,33.80
2019-03-06T01:00:32.942Z,34.97
2019-03-06T01:03:01.883Z,28.50
2019-03-06T01:05:30.894Z,28.60
2019-03-06T01:07:59.974Z,28.87
2019-03-06T01:10:29.416Z,26.90
2019-03-06T01:12:58.316Z,34.23
2019-03-06T01:15:27.344Z,29.27
2019-03-06T01:17:56.194Z,26.40
2019-03-06T01:20:25.307Z,30.40
2019-03-06T01:22:54.369Z,30.10
2019-03-06T01:25:23.525Z,29.40
2019-03-06T01:27:52.483Z,28.73
2019-03-06T01:30:21.565Z,34.40
2019-03-06T01:32:53.868Z,29.47
2019-03-06T01:35:40.352Z,28.13
2019-03-06T01:38:27.078Z,24.70
2019-03-06T01:41:04.092Z,29.40
2019-03-06T01:43:41.027Z,25.40
2019-03-06T01:46:09.996Z,28.20
2019-03-06T01:48:38.924Z,22.70
2019-03-06T01:51:07.954Z,21.90
2019-03-06T01:53:36.945Z,21.00
2019-03-06T01:56:05.917Z,25.00
2019-03-06T01:58:34.913Z,21.77
2019-03-06T02:01:03.957Z,19.50
2019-03-06T02:03:32.955Z,26.23
2019-03-06T02:06:01.832Z,21.50
2019-03-06T02:08:31.019Z,20.03
2019-03-06T02:11:00.129Z,17.70
2019-03-06T02:13:29.217Z,18.33
2019-03-06T02:15:58.272Z,19.97
2019-03-06T02:18:27.260Z,21.63
2019-03-06T02:20:56.522Z,18.90
2019-03-06T02:23:25.548Z,20.13
2019-03-06T02:25:54.491Z,22.83
2019-03-06T02:28:23.416Z,16.37
2019-03-06T02:30:52.349Z,18.93
2019-03-06T02:33:21.468Z,20.67
2019-03-06T02:35:50.344Z,17.70
2019-03-06T02:38:19.204Z,21.53
2019-03-06T02:40:48.227Z,19.97
2019-03-06T02:43:17.102Z,22.30
2019-03-06T02:45:46.088Z,17.60
2019-03-06T02:48:15.053Z,15.87
2019-03-06T02:50:44.089Z,23.90
2019-03-06T02:53:12.983Z,19.07
2019-03-06T02:55:41.874Z,17.63
2019-03-06T02:58:35.595Z,19.77
2019-03-06T03:01:29.350Z,15.20
2019-03-06T03:04:12.879Z,17.47
2019-03-06T03:06:48.215Z,14.03
2019-03-06T03:09:18.455Z,16.83
2019-03-06T03:11:47.540Z,22.43
2019-03-06T03:14:16.645Z,16.00
2019-03-06T03:16:45.724Z,22.30
2019-03-06T03:19:14.742Z,18.73
2019-03-06T03:21:43.802Z,14.00
2019-03-06T03:24:13.586Z,19.23
2019-03-06T03:26:42.553Z,16.53
2019-03-06T03:29:11.607Z,15.03
2019-03-06T03:31:40.520Z,15.33
2019-03-06T03:34:09.475Z,15.43
2019-03-06T03:36:38.478Z,13.77
2019-03-06T03:39:08.300Z,12.23
2019-03-06T03:41:37.200Z,11.30
2019-03-06T03:44:06.172Z,13.60
2019-03-06T03:46:35.165Z,15.17
2019-03-06T03:49:04.047Z,13.93
2019-03-06T03:51:33.317Z,10.53
2019-03-06T03:54:02.288Z,10.40
2019-03-06T03:56:31.264Z,14.93
2019-03-06T03:59:00.295Z,14.50
2019-03-06T04:01:29.267Z,10.77
2019-03-06T04:03:58.237Z,19.73
2019-03-06T04:06:27.215Z,13.23
2019-03-06T04:08:56.110Z,19.20
2019-03-06T04:11:25.125Z,16.23
2019-03-06T04:13:54.077Z,19.80
2019-03-06T04:16:22.946Z,12.57
2019-03-06T04:18:51.981Z,14.93
2019-03-06T04:21:20.848Z,14.50
2019-03-06T04:23:49.762Z,15.00
2019-03-06T04:26:18.687Z,13.43
2019-03-06T04:28:47.655Z,14.13
2019-03-06T04:31:16.765Z,13.30
2019-03-06T04:33:45.692Z,11.17
2019-03-06T04:36:14.662Z,11.10
2019-03-06T04:38:43.936Z,9.40
2019-03-06T04:41:12.961Z,7.80
2019-03-06T04:43:42.035Z,12.07
2019-03-06T04:46:10.992Z,9.00
2019-03-06T04:48:39.886Z,8.40
2019-03-06T04:51:08.891Z,12.07
2019-03-06T04:53:37.875Z,7.13
2019-03-06T04:56:07.186Z,9.87
2019-03-06T04:58:36.104Z,6.20
2019-03-06T05:01:05.065Z,9.17
2019-03-06T05:03:34.039Z,6.80
2019-03-06T05:06:02.976Z,7.93
2019-03-06T05:08:32.227Z,9.70
2019-03-06T05:11:01.133Z,11.77
2019-03-06T05:13:30.068Z,9.07
2019-03-06T05:15:59.021Z,16.73
2019-03-06T05:18:32.676Z,8.20
2019-03-06T05:21:01.630Z,12.87
2019-03-06T05:23:30.563Z,6.93
2019-03-06T05:25:59.516Z,8.10
2019-03-06T05:28:28.521Z,10.20
2019-03-06T05:30:57.544Z,6.57
2019-03-06T05:33:28.656Z,9.23
2019-03-06T05:36:29.678Z,11.20
2019-03-06T05:39:09.826Z,7.83
2019-03-06T05:41:38.989Z,8.93
2019-03-06T05:44:07.817Z,8.07
2019-03-06T05:46:36.837Z,11.70
2019-03-06T05:49:05.900Z,10.17
2019-03-06T05:51:34.862Z,11.03
2019-03-06T05:54:03.732Z,10.60
2019-03-06T05:56:32.761Z,5.97
2019-03-06T05:59:01.752Z,13.90
2019-03-06T06:01:33.028Z,9.50
2019-03-06T06:04:02.272Z,8.57
2019-03-06T06:06:31.274Z,6.50
2019-03-06T06:09:00.316Z,10.43
2019-03-06T06:11:29.359Z,9.80
2019-03-06T06:13:59.377Z,8.80
2019-03-06T06:16:28.332Z,8.77
2019-03-06T06:18:57.351Z,7.03
2019-03-06T06:21:45.313Z,12.83
2019-03-06T06:24:17.372Z,3.50
2019-03-06T06:26:46.264Z,6.93
2019-03-06T06:29:15.133Z,5.57
2019-03-06T06:31:44.508Z,3.47
2019-03-06T06:34:13.490Z,10.30
2019-03-06T06:36:42.503Z,3.80
2019-03-06T06:39:11.569Z,3.80
2019-03-06T06:41:40.467Z,7.30
2019-03-06T06:44:09.435Z,5.20
2019-03-06T06:46:38.398Z,7.83
2019-03-06T06:49:07.386Z,3.30
2019-03-06T06:52:14.756Z,6.43
2019-03-06T06:54:51.509Z,7.27
2019-03-06T06:57:56.336Z,4.67
2019-03-06T07:01:24.790Z,5.00
2019-03-06T07:04:44.484Z,36.53
2019-03-06T07:07:31.187Z,16.03
2019-03-06T07:10:25.167Z,12.87
2019-03-06T07:13:09.517Z,11.40
2019-03-06T07:15:56.162Z,7.00
2019-03-06T07:18:30.541Z,5.37
2019-03-06T07:21:15.631Z,3.73
2019-03-06T07:23:53.651Z,6.70
2019-03-06T07:26:47.545Z,4.27
2019-03-06T07:29:38.623Z,6.40
2019-03-06T07:32:25.261Z,6.67
2019-03-06T07:35:52.187Z,6.63
2019-03-06T07:38:21.465Z,3.10
2019-03-06T07:41:03.765Z,3.57
2019-03-06T07:43:50.461Z,2.73
2019-03-06T07:46:41.648Z,4.13
2019-03-06T07:49:24.622Z,2.83
2019-03-06T07:52:24.918Z,3.00
2019-03-06T07:55:15.712Z,5.00
2019-03-06T07:58:20.355Z,6.77
2019-03-06T08:00:49.592Z,4.40
2019-03-06T08:03:53.117Z,5.20
2019-03-06T08:06:22.164Z,3.87
2019-03-06T08:08:51.164Z,3.60
2019-03-06T08:11:27.409Z,3.87
2019-03-06T08:14:21.880Z,3.33
2019-03-06T08:16:52.215Z,2.60
2019-03-06T08:19:55.347Z,5.53
2019-03-06T08:22:43.450Z,3.10
2019-03-06T08:25:34.897Z,8.30
2019-03-06T08:28:03.954Z,3.90
2019-03-06T08:30:36.549Z,3.70
2019-03-06T08:33:05.594Z,2.60
2019-03-06T08:35:34.584Z,3.83
2019-03-06T08:38:03.620Z,3.33
2019-03-06T08:40:32.654Z,4.40
2019-03-06T08:43:01.643Z,4.10
2019-03-06T08:45:36.620Z,4.07
2019-03-06T08:48:16.330Z,5.93
2019-03-06T08:50:56.961Z,4.50
2019-03-06T08:53:47.675Z,3.47
2019-03-06T08:56:41.476Z,2.43
2019-03-06T08:59:47.826Z,3.90
2019-03-06T09:02:30.459Z,3.37
2019-03-06T09:05:18.788Z,5.17
2019-03-06T09:08:19.809Z,2.43
2019-03-06T09:11:13.635Z,2.80
2019-03-06T09:14:07.812Z,2.70
2019-03-06T09:16:55.007Z,2.57
2019-03-06T09:19:41.636Z,3.17
2019-03-06T09:22:20.018Z,1.97
2019-03-06T09:25:10.826Z,5.30
2019-03-06T09:28:04.356Z,2.60
2019-03-06T09:30:38.488Z,5.07
2019-03-06T09:33:11.834Z,3.20
2019-03-06T09:35:52.811Z,7.83
2019-03-06T09:38:39.671Z,5.73
2019-03-06T09:41:23.565Z,3.00
2019-03-06T09:44:10.111Z,3.50
2019-03-06T09:47:07.423Z,3.20
2019-03-06T09:49:55.531Z,4.60
2019-03-06T09:52:52.768Z,3.83
2019-03-06T09:55:49.968Z,1.67
2019-03-06T09:58:40.856Z,5.23
2019-03-06T10:01:28.874Z,2.60
2019-03-06T10:04:25.707Z,2.30
2019-03-06T10:07:17.040Z,4.80
2019-03-06T10:10:04.997Z,2.10
2019-03-06T10:12:53.153Z,5.83
2019-03-06T10:15:29.505Z,2.60
2019-03-06T10:18:05.110Z,4.00
2019-03-06T10:20:34.440Z,4.57
2019-03-06T10:23:03.457Z,3.23
2019-03-06T10:25:32.488Z,2.57
2019-03-06T10:28:06.238Z,1.70
2019-03-06T10:30:32.442Z,3.53
2019-03-06T10:33:01.463Z,4.93
2019-03-06T10:35:31.474Z,3.77
2019-03-06T10:38:01.075Z,2.90
2019-03-06T10:40:30.323Z,2.73
2019-03-06T10:42:59.658Z,3.97
2019-03-06T10:45:28.835Z,2.00
2019-03-06T10:47:57.988Z,6.10
2019-03-06T10:50:29.787Z,2.20
2019-03-06T10:52:57.718Z,1.90
2019-03-06T10:55:26.817Z,3.80
2019-03-06T10:57:56.090Z,4.40
2019-03-06T11:00:28.428Z,2.50
2019-03-06T11:02:57.776Z,2.87
2019-03-06T11:05:28.406Z,1.60
2019-03-06T11:07:57.607Z,6.13
2019-03-06T11:10:26.653Z,3.80
2019-03-06T11:12:58.486Z,2.50
2019-03-06T11:15:27.632Z,3.73
2019-03-06T11:17:56.737Z,2.93
2019-03-06T11:20:28.342Z,1.80
2019-03-06T11:22:57.823Z,4.83
2019-03-06T11:25:27.430Z,1.80
2019-03-06T11:27:56.402Z,1.93
2019-03-06T11:30:37.404Z,2.63
2019-03-06T11:33:07.152Z,2.50
2019-03-06T11:35:38.103Z,4.67
2019-03-06T11:38:07.280Z,2.47
2019-03-06T11:40:36.489Z,2.00
2019-03-06T11:43:05.905Z,2.93
2019-03-06T11:45:34.909Z,2.90
2019-03-06T11:48:03.797Z,2.37
2019-03-06T11:50:40.625Z,3.93
2019-03-06T11:53:03.468Z,2.47
2019-03-06T11:55:32.497Z,5.00
2019-03-06T11:58:01.441Z,9.70
2019-03-06T12:00:35.860Z,5.30
2019-03-06T12:03:05.229Z,4.13
2019-03-06T12:05:34.700Z,3.73
2019-03-06T12:08:05.675Z,3.90
2019-03-06T12:10:34.733Z,5.93
2019-03-06T12:13:03.771Z,6.00
2019-03-06T12:15:32.598Z,3.80
2019-03-06T12:18:01.780Z,4.33
2019-03-06T12:20:30.867Z,4.73
2019-03-06T12:23:01.993Z,4.10
2019-03-06T12:25:31.083Z,5.43
2019-03-06T12:28:00.214Z,1.90
2019-03-06T12:30:29.193Z,2.60
2019-03-06T12:32:58.416Z,5.03
2019-03-06T12:35:27.544Z,4.03
2019-03-06T12:37:56.478Z,2.87
2019-03-06T12:40:25.570Z,4.30
2019-03-06T12:42:54.594Z,4.23
2019-03-06T12:45:23.747Z,4.37
2019-03-06T12:47:55.607Z,4.70
2019-03-06T12:50:24.624Z,7.73
2019-03-06T12:52:53.723Z,4.30
2019-03-06T12:55:22.617Z,5.73
2019-03-06T12:57:59.143Z,2.33
2019-03-06T13:00:23.298Z,2.37
2019-03-06T13:02:52.662Z,4.03
2019-03-06T13:05:21.862Z,3.40
2019-03-06T13:07:50.813Z,3.17
2019-03-06T13:10:21.772Z,3.13
2019-03-06T13:12:51.307Z,3.03
2019-03-06T13:15:22.915Z,4.00
2019-03-06T13:17:52.299Z,2.63
2019-03-06T13:20:21.397Z,3.00
2019-03-06T13:22:51.160Z,4.73
2019-03-06T13:25:20.503Z,4.23
2019-03-06T13:27:54.809Z,3.87
2019-03-06T13:30:21.356Z,2.23
2019-03-06T13:33:08.281Z,4.90
2019-03-06T13:35:37.687Z,5.63
2019-03-06T13:38:06.832Z,5.70
2019-03-06T13:40:35.865Z,2.80
2019-03-06T13:43:05.185Z,4.97
2019-03-06T13:45:34.348Z,8.20
2019-03-06T13:48:03.530Z,2.83
2019-03-06T13:50:35.814Z,5.30
2019-03-06T13:53:05.097Z,6.20
2019-03-06T13:55:34.365Z,4.07
2019-03-06T13:58:03.621Z,2.50
2019-03-06T14:00:32.742Z,5.53
2019-03-06T14:03:01.707Z,3.13
2019-03-06T14:05:30.620Z,6.20
2019-03-06T14:07:59.791Z,7.23
2019-03-06T14:10:28.924Z,3.30
2019-03-06T14:12:57.874Z,1.90
2019-03-06T14:15:27.042Z,4.33
2019-03-06T14:17:56.272Z,5.03
2019-03-06T14:20:25.643Z,4.10
2019-03-06T14:22:54.698Z,2.13
2019-03-06T14:25:24.188Z,7.80
2019-03-06T14:27:53.179Z,3.03
2019-03-06T14:30:22.493Z,7.10
2019-03-06T14:32:51.724Z,4.97
2019-03-06T14:35:20.872Z,3.00
2019-03-06T14:37:49.897Z,3.47
2019-03-06T14:40:26.061Z,28.73
2019-03-06T14:42:55.223Z,4.13
2019-03-06T14:45:24.344Z,5.30
2019-03-06T14:47:53.247Z,2.57
2019-03-06T14:50:22.413Z,5.00
2019-03-06T14:52:51.483Z,3.73
2019-03-06T14:55:20.771Z,7.10
2019-03-06T14:57:49.865Z,4.57
2019-03-06T15:00:18.899Z,7.70
2019-03-06T15:02:47.945Z,3.23
2019-03-06T15:05:17.659Z,4.00
2019-03-06T15:07:46.675Z,4.13
2019-03-06T15:10:15.669Z,2.57
2019-03-06T15:12:44.627Z,7.47
2019-03-06T15:15:14.542Z,5.83
2019-03-06T15:17:43.671Z,3.57
2019-03-06T15:20:15.028Z,3.93
2019-03-06T15:22:44.237Z,6.97
2019-03-06T15:25:15.509Z,5.33
2019-03-06T15:27:44.537Z,4.80
2019-03-06T15:30:14.624Z,4.03
2019-03-06T15:32:43.690Z,4.37
2019-03-06T15:35:12.875Z,9.80
2019-03-06T15:37:42.107Z,4.50
2019-03-06T15:40:17.162Z,4.20
2019-03-06T15:42:46.155Z,7.90
2019-03-06T15:45:16.118Z,3.80
2019-03-06T15:47:45.213Z,3.00
2019-03-06T15:50:14.608Z,6.40
2019-03-06T15:52:43.725Z,8.00
2019-03-06T15:55:12.982Z,10.00
2019-03-06T15:57:42.025Z,3.00
2019-03-06T16:00:23.023Z,4.40
2019-03-06T16:02:52.022Z,8.90
2019-03-06T16:05:21.089Z,5.67
2019-03-06T16:07:50.240Z,4.80
2019-03-06T16:10:19.402Z,4.93
2019-03-06T16:12:48.381Z,6.87
2019-03-06T16:15:17.603Z,4.23
2019-03-06T16:17:46.660Z,3.30
2019-03-06T16:20:16.921Z,2.67
2019-03-06T16:22:46.118Z,4.53
2019-03-06T16:25:15.166Z,9.27
2019-03-06T16:27:44.125Z,14.97
2019-03-06T16:30:14.632Z,15.20
2019-03-06T16:32:44.328Z,4.77
2019-03-06T16:35:13.509Z,6.83
2019-03-06T16:37:42.699Z,75.77
2019-03-06T16:40:13.744Z,23.17
2019-03-06T16:42:42.670Z,36.87
2019-03-06T16:45:13.911Z,14.30
2019-03-06T16:47:42.936Z,4.67
2019-03-06T16:50:15.907Z,6.93
2019-03-06T16:52:43.746Z,13.93
2019-03-06T16:55:13.897Z,4.17
2019-03-06T16:57:43.166Z,10.63
2019-03-06T17:00:31.141Z,9.30
2019-03-06T17:03:02.121Z,9.17
2019-03-06T17:05:31.098Z,8.10
2019-03-06T17:08:00.166Z,4.60
2019-03-06T17:10:29.233Z,8.43
2019-03-06T17:12:58.304Z,6.53
2019-03-06T17:15:28.111Z,5.93
2019-03-06T17:17:57.228Z,7.43
2019-03-06T17:20:27.243Z,10.30
2019-03-06T17:22:56.228Z,9.13
2019-03-06T17:25:28.083Z,4.70
2019-03-06T17:27:57.033Z,4.23
2019-03-06T17:30:26.427Z,3.80
2019-03-06T17:32:57.247Z,3.93
2019-03-06T17:35:26.476Z,4.70
2019-03-06T17:37:55.536Z,2.90
2019-03-06T17:40:24.586Z,6.77
2019-03-06T17:42:53.695Z,5.87
2019-03-06T17:45:22.809Z,4.07
2019-03-06T17:47:51.905Z,8.40
2019-03-06T17:50:21.017Z,6.30
2019-03-06T17:52:50.178Z,5.10
2019-03-06T17:55:19.228Z,4.67
2019-03-06T17:57:48.398Z,4.73
2019-03-06T18:00:18.418Z,6.47
2019-03-06T18:02:47.494Z,5.33
2019-03-06T18:05:16.542Z,3.17
2019-03-06T18:07:45.564Z,4.13
2019-03-06T18:10:16.381Z,3.70
2019-03-06T18:12:45.508Z,5.57
2019-03-06T18:15:14.435Z,3.90
2019-03-06T18:17:43.851Z,5.17
2019-03-06T18:20:13.865Z,4.63
2019-03-06T18:22:42.899Z,5.10
2019-03-06T18:25:13.915Z,7.37
2019-03-06T18:27:42.931Z,7.20
2019-03-06T18:30:14.064Z,7.00
2019-03-06T18:32:43.393Z,4.70
2019-03-06T18:35:13.001Z,6.93
2019-03-06T18:37:42.081Z,4.77
2019-03-06T18:40:13.253Z,4.53
2019-03-06T18:42:42.341Z,7.73
2019-03-06T18:45:12.841Z,14.47
2019-03-06T18:47:42.201Z,9.33
2019-03-06T18:50:12.521Z,8.37
2019-03-06T18:52:41.449Z,8.40
2019-03-06T18:55:10.675Z,9.70
2019-03-06T18:57:39.785Z,6.53
2019-03-06T19:00:12.448Z,6.23
2019-03-06T19:02:41.452Z,15.87
2019-03-06T19:05:10.762Z,7.60
2019-03-06T19:07:39.876Z,7.27
2019-03-06T19:10:10.009Z,7.20
2019-03-06T19:12:39.152Z,7.27
2019-03-06T19:15:10.327Z,9.93
2019-03-06T19:17:39.618Z,6.97
2019-03-06T19:20:08.896Z,7.80
2019-03-06T19:22:38.099Z,6.13
2019-03-06T19:25:07.264Z,7.90
2019-03-06T19:27:36.338Z,5.30
2019-03-06T19:30:14.907Z,7.20
2019-03-06T19:32:43.912Z,5.20
2019-03-06T19:35:12.943Z,9.13
2019-03-06T19:37:42.153Z,15.00
2019-03-06T19:40:11.302Z,9.07
2019-03-06T19:42:40.473Z,9.07
2019-03-06T19:45:10.870Z,6.90
2019-03-06T19:47:40.233Z,8.70
2019-03-06T19:50:11.871Z,5.40
2019-03-06T19:52:40.907Z,9.77
2019-03-06T19:55:11.265Z,10.97
2019-03-06T19:57:57.493Z,7.33
2019-03-06T20:00:29.207Z,7.87
2019-03-06T20:02:57.922Z,6.60
2019-03-06T20:05:31.059Z,8.37
2019-03-06T20:08:01.578Z,8.20
2019-03-06T20:10:30.704Z,5.23
2019-03-06T20:12:59.846Z,6.00
2019-03-06T20:15:28.970Z,6.00
2019-03-06T20:17:57.996Z,6.80
2019-03-06T20:20:27.167Z,7.70
2019-03-06T20:22:56.542Z,4.20
2019-03-06T20:25:25.671Z,10.10
2019-03-06T20:27:55.055Z,5.20
2019-03-06T20:30:24.362Z,3.97
2019-03-06T20:32:53.502Z,4.23
2019-03-06T20:35:23.121Z,6.70
2019-03-06T20:37:52.227Z,11.80
2019-03-06T20:40:21.450Z,8.00
2019-03-06T20:42:50.497Z,6.57
2019-03-06T20:45:19.555Z,8.17
2019-03-06T20:47:48.652Z,17.40
2019-03-06T20:50:17.698Z,10.63
2019-03-06T20:52:46.826Z,8.77
2019-03-06T20:55:16.306Z,8.43
2019-03-06T20:57:45.311Z,10.47
2019-03-06T21:00:16.029Z,5.30
2019-03-06T21:02:45.141Z,3.90
2019-03-06T21:05:14.229Z,2.90
2019-03-06T21:07:45.382Z,2.97
2019-03-06T21:10:15.023Z,6.20
2019-03-06T21:12:44.116Z,4.27
2019-03-06T21:15:14.692Z,5.70
2019-03-06T21:17:44.240Z,1.90
2019-03-06T21:20:15.082Z,4.20
2019-03-06T21:22:44.047Z,5.73
2019-03-06T21:25:14.433Z,4.40
2019-03-06T21:27:43.466Z,7.20
2019-03-06T21:30:32.210Z,3.73
2019-03-06T21:33:01.325Z,3.37
2019-03-06T21:35:30.455Z,3.10
2019-03-06T21:37:59.619Z,3.57
2019-03-06T21:40:28.968Z,5.07
2019-03-06T21:43:00.256Z,4.40
2019-03-06T21:45:28.879Z,3.33
2019-03-06T21:47:57.955Z,4.67
2019-03-06T21:50:27.081Z,6.47
2019-03-06T21:52:56.104Z,4.67
2019-03-06T21:55:25.076Z,7.27
2019-03-06T21:57:54.108Z,6.07
2019-03-06T22:00:23.093Z,5.20
2019-03-06T22:02:52.151Z,3.90
2019-03-06T22:05:21.229Z,4.33
2019-03-06T22:07:51.110Z,5.57
2019-03-06T22:10:20.487Z,5.20
2019-03-06T22:12:49.891Z,4.63
2019-03-06T22:15:18.866Z,5.67
2019-03-06T22:17:47.817Z,4.50
2019-03-06T22:20:16.843Z,5.53
2019-03-06T22:22:46.196Z,5.87
2019-03-06T22:25:15.621Z,4.73
2019-03-06T22:27:44.668Z,4.27
2019-03-06T22:30:17.684Z,5.50
2019-03-06T22:32:46.749Z,6.63
2019-03-06T22:35:15.806Z,3.20
2019-03-06T22:37:44.838Z,8.30
2019-03-06T22:40:14.675Z,7.27
2019-03-06T22:42:43.721Z,5.60
2019-03-06T22:45:13.504Z,5.40
2019-03-06T22:47:42.518Z,6.50
2019-03-06T22:50:12.755Z,4.27
2019-03-06T22:52:41.650Z,3.97
2019-03-06T22:55:13.548Z,3.80
2019-03-06T22:57:42.608Z,5.07
2019-03-06T23:00:43.336Z,7.23
2019-03-06T23:03:13.124Z,6.57
2019-03-06T23:05:42.118Z,5.40
2019-03-06T23:08:11.067Z,6.10
2019-03-06T23:10:40.033Z,7.87
2019-03-06T23:13:09.091Z,10.77
2019-03-06T23:15:38.131Z,5.60
2019-03-06T23:18:07.100Z,7.73
2019-03-06T23:20:36.164Z,7.97
2019-03-06T23:23:04.992Z,8.07
2019-03-06T23:25:33.862Z,6.50
2019-03-06T23:28:02.806Z,8.23
2019-03-06T23:30:31.995Z,6.53
2019-03-06T23:33:01.005Z,10.07
2019-03-06T23:35:30.045Z,9.33
2019-03-06T23:37:58.992Z,10.77
2019-03-06T23:40:28.085Z,10.17
2019-03-06T23:42:57.139Z,13.23
2019-03-06T23:45:26.294Z,5.50
2019-03-06T23:47:55.369Z,12.43
2019-03-06T23:50:24.431Z,6.73
2019-03-06T23:53:13.084Z,7.30
2019-03-06T23:55:42.128Z,7.33
2019-03-06T23:58:11.104Z,8.63
